createdAt,value
2022-12-26T00:01:12.075Z,10.50
2022-12-26T00:03:17.102Z,9.57
2022-12-26T00:05:22.781Z,12.05
2022-12-26T00:07:27.716Z,12.40
2022-12-26T00:09:36.299Z,8.30
2022-12-26T00:11:41.736Z,7.32
2022-12-26T00:13:47.861Z,11.52
2022-12-26T00:15:53.179Z,9.60
2022-12-26T00:18:01.080Z,8.52
2022-12-26T00:20:06.743Z,14.70
2022-12-26T00:22:12.406Z,10.00
2022-12-26T00:24:17.336Z,10.48
2022-12-26T00:26:25.707Z,10.60
2022-12-26T00:28:30.606Z,11.57
2022-12-26T00:30:36.059Z,8.77
2022-12-26T00:32:40.946Z,8.23
2022-12-26T00:34:48.743Z,9.32
2022-12-26T00:36:53.670Z,8.43
2022-12-26T00:39:00.234Z,10.50
2022-12-26T00:41:05.922Z,10.05
2022-12-26T00:43:11.019Z,13.13
2022-12-26T00:45:15.938Z,13.40
2022-12-26T00:47:21.070Z,9.52
2022-12-26T00:49:26.149Z,9.43
2022-12-26T00:51:33.678Z,9.75
2022-12-26T00:53:39.591Z,13.15
2022-12-26T00:55:44.853Z,13.13
2022-12-26T00:57:49.795Z,10.27
2022-12-26T00:59:55.033Z,8.70
2022-12-26T01:02:00.153Z,8.93
2022-12-26T01:04:05.860Z,9.10
2022-12-26T01:06:11.533Z,9.15
2022-12-26T01:08:24.795Z,7.38
2022-12-26T01:10:30.876Z,11.75
2022-12-26T01:12:36.590Z,10.52
2022-12-26T01:14:41.827Z,10.98
2022-12-26T01:16:49.434Z,7.80
2022-12-26T01:18:54.413Z,12.43
2022-12-26T01:21:04.771Z,9.57
2022-12-26T01:23:09.673Z,7.95
2022-12-26T01:25:17.178Z,9.27
2022-12-26T01:27:22.083Z,10.38
2022-12-26T01:29:26.997Z,8.95
2022-12-26T01:31:32.246Z,8.00
2022-12-26T01:33:38.095Z,8.05
2022-12-26T01:35:43.005Z,9.48
2022-12-26T01:37:48.214Z,8.90
2022-12-26T01:39:54.815Z,8.65
2022-12-26T01:42:03.017Z,11.80
2022-12-26T01:44:30.033Z,7.97
2022-12-26T01:46:40.897Z,10.63
2022-12-26T01:48:46.736Z,7.50
2022-12-26T01:50:57.904Z,7.97
2022-12-26T01:53:11.151Z,8.57
2022-12-26T01:57:31.834Z,8.15
2022-12-26T01:59:41.358Z,8.85
2022-12-26T02:01:50.403Z,7.47
2022-12-26T02:04:08.055Z,11.38
2022-12-26T02:06:15.960Z,10.18
2022-12-26T02:08:29.616Z,10.50
2022-12-26T02:10:41.830Z,10.20
2022-12-26T02:12:51.104Z,9.45
2022-12-26T02:14:56.092Z,10.48
2022-12-26T02:17:01.206Z,9.77
2022-12-26T02:19:09.381Z,10.75
2022-12-26T02:21:44.339Z,8.60
2022-12-26T02:24:19.083Z,9.65
2022-12-26T02:27:03.486Z,11.13
2022-12-26T02:30:02.618Z,9.77
2022-12-26T02:32:20.321Z,8.50
2022-12-26T02:34:34.607Z,7.68
2022-12-26T02:37:02.814Z,13.40
2022-12-26T02:39:45.138Z,7.93
2022-12-26T02:42:00.378Z,12.40
2022-12-26T02:44:31.413Z,6.88
2022-12-26T02:46:58.733Z,10.55
2022-12-26T02:49:15.082Z,8.48
2022-12-26T02:51:48.839Z,12.00
2022-12-26T02:54:21.370Z,7.78
2022-12-26T02:56:46.978Z,8.47
2022-12-26T02:59:13.307Z,11.52
2022-12-26T03:01:38.840Z,8.00
2022-12-26T03:03:59.779Z,10.43
2022-12-26T03:06:27.006Z,10.90
2022-12-26T03:08:48.929Z,8.85
2022-12-26T03:11:10.770Z,9.32
2022-12-26T03:13:23.237Z,7.50
2022-12-26T03:15:52.937Z,9.40
2022-12-26T03:18:01.651Z,8.32
2022-12-26T03:20:14.208Z,6.07
2022-12-26T03:22:33.143Z,9.73
2022-12-26T03:25:02.596Z,11.50
2022-12-26T03:27:04.951Z,6.70
2022-12-26T03:29:26.372Z,7.07
2022-12-26T03:31:31.317Z,8.02
2022-12-26T03:33:53.534Z,7.32
2022-12-26T03:35:58.993Z,12.25
2022-12-26T03:38:14.276Z,9.55
2022-12-26T03:40:49.273Z,7.90
2022-12-26T03:43:16.658Z,6.90
2022-12-26T03:45:47.426Z,6.97
2022-12-26T03:48:18.187Z,6.38
2022-12-26T03:50:47.450Z,7.95
2022-12-26T03:53:17.559Z,11.40
2022-12-26T03:55:46.328Z,8.48
2022-12-26T03:58:08.878Z,6.72
2022-12-26T04:00:29.630Z,10.43
2022-12-26T04:02:48.879Z,10.20
2022-12-26T04:05:12.165Z,7.57
2022-12-26T04:07:35.276Z,10.90
2022-12-26T04:09:58.577Z,9.02
2022-12-26T04:12:21.397Z,10.23
2022-12-26T04:14:54.623Z,12.18
2022-12-26T04:17:18.050Z,8.50
2022-12-26T04:19:39.077Z,6.72
2022-12-26T04:22:03.569Z,9.43
2022-12-26T04:24:27.373Z,8.50
2022-12-26T04:26:54.028Z,10.18
2022-12-26T04:29:14.468Z,6.57
2022-12-26T04:31:41.272Z,11.43
2022-12-26T04:34:05.518Z,7.43
2022-12-26T04:36:31.278Z,8.25
2022-12-26T04:38:56.967Z,8.52
2022-12-26T04:41:17.162Z,12.77
2022-12-26T04:43:48.041Z,10.55
2022-12-26T04:45:59.211Z,11.68
2022-12-26T04:48:16.703Z,9.10
2022-12-26T04:50:22.172Z,6.38
2022-12-26T04:52:47.290Z,8.65
2022-12-26T04:54:52.202Z,7.18
2022-12-26T04:56:57.464Z,8.40
2022-12-26T04:59:02.583Z,7.40
2022-12-26T05:01:22.485Z,9.30
2022-12-26T05:03:42.724Z,8.20
2022-12-26T05:06:03.801Z,6.97
2022-12-26T05:08:21.555Z,9.77
2022-12-26T05:10:30.765Z,10.15
2022-12-26T05:12:36.067Z,8.43
2022-12-26T05:14:41.107Z,11.02
2022-12-26T05:17:01.722Z,7.78
2022-12-26T05:19:19.172Z,7.30
2022-12-26T05:21:36.764Z,7.20
2022-12-26T05:23:54.197Z,11.57
2022-12-26T05:26:11.647Z,9.13
2022-12-26T05:28:31.436Z,10.18
2022-12-26T05:30:36.324Z,11.02
2022-12-26T05:32:56.648Z,12.98
2022-12-26T05:35:01.568Z,8.50
2022-12-26T05:37:06.587Z,10.50
2022-12-26T05:39:12.485Z,7.10
2022-12-26T05:41:17.477Z,6.60
2022-12-26T05:43:22.746Z,9.02
2022-12-26T05:45:27.680Z,9.98
2022-12-26T05:47:32.602Z,11.13
2022-12-26T05:49:40.112Z,10.52
2022-12-26T05:51:45.368Z,6.50
2022-12-26T05:53:48.578Z,11.18
2022-12-26T05:55:53.500Z,11.30
2022-12-26T05:57:59.956Z,7.28
2022-12-26T06:00:05.625Z,8.63
2022-12-26T06:02:10.550Z,8.60
2022-12-26T06:04:16.186Z,12.02
2022-12-26T06:06:25.386Z,8.70
2022-12-26T06:08:30.403Z,9.48
2022-12-26T06:10:35.286Z,8.98
2022-12-26T06:12:41.412Z,10.43
2022-12-26T06:14:46.322Z,10.50
2022-12-26T06:16:51.998Z,7.78
2022-12-26T06:18:58.121Z,11.18
2022-12-26T06:21:06.269Z,10.52
2022-12-26T06:23:14.156Z,9.68
2022-12-26T06:25:19.346Z,9.07
2022-12-26T06:27:24.342Z,7.53
2022-12-26T06:29:29.313Z,10.65
2022-12-26T06:31:34.443Z,10.73
2022-12-26T06:33:39.878Z,8.43
2022-12-26T06:35:45.836Z,14.40
2022-12-26T06:37:50.716Z,9.95
2022-12-26T06:39:58.555Z,8.48
2022-12-26T06:42:05.622Z,6.10
2022-12-26T06:44:17.877Z,6.22
2022-12-26T06:46:26.414Z,7.05
2022-12-26T06:48:32.508Z,8.48
2022-12-26T06:50:39.996Z,6.78
2022-12-26T06:52:45.264Z,7.75
2022-12-26T06:54:50.716Z,6.57
2022-12-26T06:56:58.640Z,6.95
2022-12-26T06:59:06.208Z,9.18
2022-12-26T07:01:13.688Z,7.80
2022-12-26T07:03:20.025Z,8.15
2022-12-26T07:05:25.824Z,8.73
2022-12-26T07:07:30.823Z,6.05
2022-12-26T07:09:35.992Z,8.27
2022-12-26T07:11:42.916Z,8.77
2022-12-26T07:13:50.470Z,10.52
2022-12-26T07:15:55.744Z,11.95
2022-12-26T07:18:01.033Z,9.18
2022-12-26T07:20:06.210Z,7.68
2022-12-26T07:22:11.524Z,7.63
2022-12-26T07:24:19.627Z,7.35
2022-12-26T07:26:24.876Z,9.55
2022-12-26T07:28:29.859Z,9.52
2022-12-26T07:30:37.788Z,12.65
2022-12-26T07:32:42.742Z,7.50
2022-12-26T07:34:47.676Z,8.43
2022-12-26T07:36:53.298Z,9.43
2022-12-26T07:38:58.245Z,10.35
2022-12-26T07:41:24.894Z,10.45
2022-12-26T07:43:29.810Z,9.45
2022-12-26T07:45:41.996Z,7.72
2022-12-26T07:47:50.363Z,12.15
2022-12-26T07:49:55.328Z,8.80
2022-12-26T07:52:00.623Z,9.07
2022-12-26T07:54:10.709Z,7.88
2022-12-26T07:56:16.463Z,11.05
2022-12-26T07:58:21.409Z,9.88
2022-12-26T08:00:26.663Z,11.95
2022-12-26T08:02:34.444Z,11.90
2022-12-26T08:04:39.625Z,9.00
2022-12-26T08:06:44.915Z,9.48
2022-12-26T08:08:51.547Z,10.10
2022-12-26T08:11:02.719Z,11.02
2022-12-26T08:13:07.774Z,11.80
2022-12-26T08:15:15.059Z,12.68
2022-12-26T08:17:20.950Z,9.93
2022-12-26T08:19:28.562Z,8.60
2022-12-26T08:21:33.577Z,9.20
2022-12-26T08:23:38.571Z,11.95
2022-12-26T08:25:43.476Z,11.10
2022-12-26T08:27:48.413Z,10.48
2022-12-26T08:29:53.340Z,8.60
2022-12-26T08:31:58.251Z,10.43
2022-12-26T08:34:03.164Z,11.18
2022-12-26T08:36:16.881Z,15.13
2022-12-26T08:38:26.184Z,11.18
2022-12-26T08:40:43.916Z,11.25
2022-12-26T08:43:11.847Z,8.32
2022-12-26T08:45:14.400Z,12.02
2022-12-26T08:47:19.520Z,8.65
2022-12-26T08:49:24.478Z,9.88
2022-12-26T08:51:31.993Z,7.80
2022-12-26T08:53:39.079Z,9.57
2022-12-26T08:55:44.865Z,9.38
2022-12-26T08:57:49.801Z,7.03
2022-12-26T08:59:55.357Z,7.38
2022-12-26T09:02:00.359Z,10.38
2022-12-26T09:04:07.401Z,5.95
2022-12-26T09:06:14.044Z,10.60
2022-12-26T09:08:21.871Z,10.20
2022-12-26T09:10:26.752Z,7.00
2022-12-26T09:12:31.650Z,7.70
2022-12-26T09:14:37.043Z,7.78
2022-12-26T09:16:50.354Z,6.28
2022-12-26T09:18:58.961Z,10.43
2022-12-26T09:21:04.871Z,6.93
2022-12-26T09:23:10.910Z,6.88
2022-12-26T09:25:18.927Z,6.85
2022-12-26T09:27:24.001Z,6.70
2022-12-26T09:29:29.164Z,6.75
2022-12-26T09:31:37.916Z,6.78
2022-12-26T09:33:43.425Z,7.82
2022-12-26T09:35:48.742Z,6.93
2022-12-26T09:37:53.627Z,5.00
2022-12-26T09:39:58.532Z,8.32
2022-12-26T09:42:25.044Z,7.35
2022-12-26T09:44:48.414Z,6.13
2022-12-26T09:47:06.116Z,8.30
2022-12-26T09:49:17.668Z,10.35
2022-12-26T09:51:22.618Z,8.50
2022-12-26T09:53:34.959Z,7.40
2022-12-26T09:55:46.469Z,6.97
2022-12-26T09:57:58.824Z,5.10
2022-12-26T10:00:08.535Z,4.83
2022-12-26T10:02:23.051Z,8.20
2022-12-26T10:04:31.261Z,7.35
2022-12-26T10:06:41.778Z,5.60
2022-12-26T10:09:15.467Z,6.28
2022-12-26T10:11:33.955Z,7.93
2022-12-26T10:13:49.187Z,5.75
2022-12-26T10:16:01.572Z,7.53
2022-12-26T10:18:20.939Z,7.95
2022-12-26T10:20:35.970Z,6.68
2022-12-26T10:23:32.836Z,6.15
2022-12-26T10:25:46.831Z,7.95
2022-12-26T10:27:54.575Z,8.57
2022-12-26T10:30:09.270Z,5.78
2022-12-26T10:32:27.493Z,7.35
2022-12-26T10:34:38.695Z,5.47
2022-12-26T10:36:50.136Z,5.72
2022-12-26T10:38:58.096Z,8.25
2022-12-26T10:41:12.811Z,7.72
2022-12-26T10:43:31.267Z,6.28
2022-12-26T10:45:47.889Z,3.92
2022-12-26T10:47:55.048Z,7.13
2022-12-26T10:50:01.317Z,5.85
2022-12-26T10:52:07.228Z,4.28
2022-12-26T10:54:20.219Z,7.88
2022-12-26T10:56:27.938Z,9.02
2022-12-26T10:58:38.453Z,7.18
2022-12-26T11:00:46.576Z,7.80
2022-12-26T11:03:07.178Z,4.50
2022-12-26T11:05:48.353Z,6.70
2022-12-26T11:07:43.875Z,3.45
2022-12-26T11:09:49.121Z,4.68
2022-12-26T11:11:54.791Z,5.30
2022-12-26T11:14:03.524Z,5.35
2022-12-26T11:16:12.818Z,5.20
2022-12-26T11:18:23.174Z,9.25
2022-12-26T11:20:34.218Z,5.70
2022-12-26T11:22:40.144Z,4.78
2022-12-26T11:24:45.126Z,5.65
2022-12-26T11:26:50.830Z,5.15
2022-12-26T11:29:10.760Z,6.10
2022-12-26T11:31:26.936Z,3.58
2022-12-26T11:33:36.868Z,4.28
2022-12-26T11:35:52.338Z,7.97
2022-12-26T11:38:03.648Z,4.45
2022-12-26T11:40:18.598Z,4.75
2022-12-26T11:42:27.342Z,3.88
2022-12-26T11:44:34.916Z,6.18
2022-12-26T11:46:47.374Z,5.68
2022-12-26T11:48:53.989Z,3.60
2022-12-26T11:50:58.917Z,4.53
2022-12-26T11:53:12.327Z,3.95
2022-12-26T11:55:34.423Z,4.65
2022-12-26T11:57:39.397Z,5.18
2022-12-26T11:59:45.939Z,3.50
2022-12-26T12:02:30.894Z,4.88
2022-12-26T12:04:35.927Z,5.68
2022-12-26T12:06:57.075Z,3.50
2022-12-26T12:09:10.535Z,4.75
2022-12-26T12:11:34.457Z,4.03
2022-12-26T12:13:58.693Z,3.03
2022-12-26T12:16:17.579Z,4.47
2022-12-26T12:18:40.587Z,4.35
2022-12-26T12:21:03.309Z,3.53
2022-12-26T12:23:41.146Z,7.13
2022-12-26T12:26:11.956Z,7.75
2022-12-26T12:28:59.976Z,4.63
2022-12-26T12:31:14.842Z,4.72
2022-12-26T12:33:44.983Z,4.25
2022-12-26T12:36:05.868Z,3.00
2022-12-26T12:38:38.893Z,3.85
2022-12-26T12:40:54.965Z,5.53
2022-12-26T12:43:14.414Z,5.43
2022-12-26T12:45:32.555Z,3.22
2022-12-26T12:47:52.103Z,3.33
2022-12-26T12:50:08.712Z,3.97
2022-12-26T12:52:30.246Z,5.38
2022-12-26T12:55:11.735Z,4.70
2022-12-26T12:57:27.917Z,3.13
2022-12-26T12:59:43.969Z,4.93
2022-12-26T13:01:55.686Z,4.30
2022-12-26T13:04:08.659Z,4.88
2022-12-26T13:06:21.122Z,3.28
2022-12-26T13:08:32.319Z,3.95
2022-12-26T13:10:42.643Z,4.35
2022-12-26T13:12:50.542Z,3.00
2022-12-26T13:15:00.768Z,3.72
2022-12-26T13:17:12.934Z,3.55
2022-12-26T13:19:25.271Z,3.83
2022-12-26T13:21:40.171Z,4.55
2022-12-26T13:24:02.309Z,3.17
2022-12-26T13:26:17.192Z,4.90
2022-12-26T13:28:31.314Z,5.47
2022-12-26T13:30:36.293Z,3.67
2022-12-26T13:32:46.309Z,3.88
2022-12-26T13:34:54.074Z,3.67
2022-12-26T13:37:03.251Z,3.42
2022-12-26T13:39:42.317Z,5.57
2022-12-26T13:42:03.920Z,5.07
2022-12-26T13:44:26.436Z,3.58
2022-12-26T13:46:58.584Z,4.00
2022-12-26T13:49:03.598Z,4.70
2022-12-26T13:51:54.568Z,4.60
2022-12-26T13:54:05.694Z,6.80
2022-12-26T13:56:43.827Z,3.63
2022-12-26T13:58:58.706Z,5.70
2022-12-26T14:01:14.197Z,4.10
2022-12-26T14:03:53.106Z,2.58
2022-12-26T14:06:21.089Z,4.97
2022-12-26T14:08:41.204Z,2.55
2022-12-26T14:11:05.254Z,4.75
2022-12-26T14:13:35.573Z,2.72
2022-12-26T14:15:53.083Z,3.25
2022-12-26T14:18:14.542Z,4.07
2022-12-26T14:20:39.428Z,3.03
2022-12-26T14:23:00.198Z,3.42
2022-12-26T14:25:21.742Z,2.90
2022-12-26T14:27:37.167Z,3.88
2022-12-26T14:29:51.826Z,3.53
2022-12-26T14:32:15.436Z,3.13
2022-12-26T14:34:37.244Z,3.78
2022-12-26T14:36:52.419Z,5.07
2022-12-26T14:39:09.419Z,3.05
2022-12-26T14:41:34.405Z,4.55
2022-12-26T14:43:41.020Z,4.40
2022-12-26T14:45:51.638Z,3.53
2022-12-26T14:47:57.869Z,2.72
2022-12-26T14:50:40.402Z,3.72
2022-12-26T14:52:46.247Z,3.15
2022-12-26T14:54:51.859Z,3.65
2022-12-26T14:57:00.495Z,5.25
2022-12-26T14:59:30.591Z,2.88
2022-12-26T15:02:03.558Z,2.63
2022-12-26T15:04:19.328Z,1.55
2022-12-26T15:07:20.358Z,3.33
2022-12-26T15:09:44.520Z,4.40
2022-12-26T15:12:29.883Z,2.05
2022-12-26T15:15:10.981Z,3.65
2022-12-26T15:17:26.133Z,5.22
2022-12-26T15:20:12.941Z,4.30
2022-12-26T15:23:24.457Z,4.72
2022-12-26T15:26:08.478Z,4.15
2022-12-26T15:29:23.565Z,2.42
2022-12-26T15:34:01.504Z,4.50
2022-12-26T15:36:20.566Z,5.32
2022-12-26T15:38:36.332Z,4.57
2022-12-26T15:40:48.148Z,10.88
2022-12-26T15:43:20.576Z,4.57
2022-12-26T15:45:46.942Z,4.53
2022-12-26T15:48:02.103Z,3.75
2022-12-26T15:50:26.071Z,3.28
2022-12-26T15:52:46.320Z,4.47
2022-12-26T15:55:20.507Z,5.55
2022-12-26T15:57:36.653Z,4.10
2022-12-26T16:00:13.912Z,2.80
2022-12-26T16:02:41.655Z,2.47
2022-12-26T16:04:54.621Z,4.43
2022-12-26T16:07:11.828Z,5.90
2022-12-26T16:09:37.193Z,2.28
2022-12-26T16:11:55.154Z,2.47
2022-12-26T16:14:03.958Z,4.28
2022-12-26T16:16:11.560Z,2.20
2022-12-26T16:18:24.728Z,4.70
2022-12-26T16:20:48.467Z,2.92
2022-12-26T16:22:53.421Z,1.38
2022-12-26T16:24:59.114Z,2.78
2022-12-26T16:27:08.103Z,3.55
2022-12-26T16:29:20.784Z,2.03
2022-12-26T16:31:31.667Z,2.90
2022-12-26T16:33:45.660Z,4.43
2022-12-26T16:35:52.212Z,4.38
2022-12-26T16:38:03.067Z,3.53
2022-12-26T16:40:18.389Z,3.88
2022-12-26T16:42:33.157Z,2.90
2022-12-26T16:44:41.101Z,3.97
2022-12-26T16:46:46.676Z,5.82
2022-12-26T16:49:00.134Z,3.65
2022-12-26T16:51:09.889Z,3.40
2022-12-26T16:53:17.664Z,5.47
2022-12-26T16:55:36.044Z,6.00
2022-12-26T16:57:45.492Z,8.10
2022-12-26T16:59:54.392Z,6.20
2022-12-26T17:02:05.099Z,4.90
2022-12-26T17:04:22.556Z,8.32
2022-12-26T17:06:31.269Z,5.68
2022-12-26T17:08:36.908Z,4.07
2022-12-26T17:10:48.679Z,5.03
2022-12-26T17:12:54.847Z,6.18
2022-12-26T17:15:03.443Z,5.80
2022-12-26T17:17:28.569Z,7.93
2022-12-26T17:19:38.487Z,7.22
2022-12-26T17:21:43.448Z,9.00
2022-12-26T17:24:00.435Z,4.40
2022-12-26T17:26:25.873Z,5.93
2022-12-26T17:28:31.833Z,5.57
2022-12-26T17:30:39.438Z,2.13
2022-12-26T17:32:47.869Z,10.18
2022-12-26T17:34:55.442Z,3.08
2022-12-26T17:37:19.064Z,3.25
2022-12-26T17:39:27.024Z,1.75
2022-12-26T17:41:32.217Z,3.65
2022-12-26T17:43:40.643Z,0.65
2022-12-26T17:45:47.535Z,2.72
2022-12-26T17:47:54.359Z,3.85
2022-12-26T17:50:01.892Z,4.72
2022-12-26T17:52:07.263Z,1.42
2022-12-26T17:54:12.536Z,2.58
2022-12-26T17:56:20.929Z,1.52
2022-12-26T17:58:26.543Z,0.70
2022-12-26T18:00:32.048Z,1.50
2022-12-26T18:02:37.520Z,1.52
2022-12-26T18:04:43.231Z,4.47
2022-12-26T18:06:50.752Z,0.77
2022-12-26T18:08:55.757Z,2.08
2022-12-26T18:11:03.702Z,0.95
2022-12-26T18:13:17.620Z,0.90
2022-12-26T18:15:23.682Z,0.57
2022-12-26T18:17:28.732Z,1.08
2022-12-26T18:19:35.599Z,0.40
2022-12-26T18:21:40.512Z,1.17
2022-12-26T18:23:48.530Z,0.47
2022-12-26T18:25:54.760Z,0.98
2022-12-26T18:27:59.937Z,0.43
2022-12-26T18:30:05.132Z,0.60
2022-12-26T18:32:24.112Z,0.45
2022-12-26T18:34:29.173Z,1.38
2022-12-26T18:36:41.177Z,1.17
2022-12-26T18:38:48.998Z,2.25
2022-12-26T18:40:57.832Z,3.88
2022-12-26T18:43:04.026Z,3.17
2022-12-26T18:45:09.539Z,2.17
2022-12-26T18:47:17.349Z,3.05
2022-12-26T18:49:22.532Z,1.15
2022-12-26T18:51:28.955Z,2.90
2022-12-26T18:53:33.857Z,1.27
2022-12-26T18:55:42.887Z,3.50
2022-12-26T18:57:47.781Z,0.77
2022-12-26T18:59:52.673Z,0.82
2022-12-26T19:01:58.729Z,1.23
2022-12-26T19:04:03.651Z,2.70
2022-12-26T19:06:09.583Z,1.08
2022-12-26T19:08:14.701Z,1.30
2022-12-26T19:10:21.408Z,2.92
2022-12-26T19:12:29.588Z,2.42
2022-12-26T19:14:35.210Z,1.63
2022-12-26T19:16:41.271Z,3.17
2022-12-26T19:18:46.303Z,3.35
2022-12-26T19:20:51.336Z,2.70
2022-12-26T19:22:58.241Z,2.58
2022-12-26T19:25:03.495Z,6.20
2022-12-26T19:27:08.510Z,3.70
2022-12-26T19:29:16.450Z,4.40
2022-12-26T19:31:21.655Z,4.50
2022-12-26T19:33:26.887Z,4.00
2022-12-26T19:35:31.863Z,6.07
2022-12-26T19:37:37.234Z,4.15
2022-12-26T19:39:42.135Z,3.92
2022-12-26T19:41:47.028Z,3.72
2022-12-26T19:43:58.775Z,5.00
2022-12-26T19:46:09.162Z,6.03
2022-12-26T19:48:14.099Z,2.88
2022-12-26T19:50:19.142Z,2.92
2022-12-26T19:52:24.487Z,5.85
2022-12-26T19:54:29.735Z,5.88
2022-12-26T19:56:34.840Z,7.70
2022-12-26T19:58:40.594Z,5.30
2022-12-26T20:00:46.336Z,3.78
2022-12-26T20:02:53.888Z,4.90
2022-12-26T20:04:58.790Z,5.03
2022-12-26T20:07:03.741Z,5.75
2022-12-26T20:09:15.716Z,5.65
2022-12-26T20:11:23.634Z,7.18
2022-12-26T20:13:28.566Z,6.20
2022-12-26T20:15:35.782Z,9.15
2022-12-26T20:17:41.096Z,6.70
2022-12-26T20:19:50.600Z,8.90
2022-12-26T20:21:56.026Z,8.13
2022-12-26T20:24:01.868Z,6.50
2022-12-26T20:26:10.956Z,8.65
2022-12-26T20:28:15.965Z,6.65
2022-12-26T20:30:21.101Z,5.40
2022-12-26T20:32:26.254Z,8.85
2022-12-26T20:34:31.225Z,5.45
2022-12-26T20:36:40.249Z,5.68
2022-12-26T20:38:46.691Z,5.72
2022-12-26T20:40:53.995Z,5.68
2022-12-26T20:42:58.906Z,6.05
2022-12-26T20:45:03.820Z,5.50
2022-12-26T20:47:08.734Z,5.47
2022-12-26T20:49:14.401Z,6.78
2022-12-26T20:51:23.177Z,5.80
2022-12-26T20:53:31.182Z,5.53
2022-12-26T20:55:39.214Z,7.93
2022-12-26T20:57:44.131Z,6.28
2022-12-26T20:59:49.023Z,5.18
2022-12-26T21:01:53.974Z,6.88
2022-12-26T21:04:00.175Z,6.28
2022-12-26T21:06:10.253Z,6.68
2022-12-26T21:08:15.743Z,8.90
2022-12-26T21:10:23.333Z,9.00
2022-12-26T21:12:28.347Z,8.35
2022-12-26T21:14:33.416Z,9.45
2022-12-26T21:16:42.209Z,7.68
2022-12-26T21:18:47.301Z,9.20
2022-12-26T21:20:52.859Z,7.93
2022-12-26T21:22:58.378Z,10.38
2022-12-26T21:25:03.619Z,11.88
2022-12-26T21:27:11.126Z,7.03
2022-12-26T21:29:20.109Z,9.23
2022-12-26T21:31:25.397Z,13.00
2022-12-26T21:33:32.164Z,16.30
2022-12-26T21:35:39.845Z,11.65
2022-12-26T21:37:51.583Z,12.45
2022-12-26T21:39:56.499Z,12.10
2022-12-26T21:42:01.831Z,9.93
2022-12-26T21:44:09.329Z,11.82
2022-12-26T21:46:17.809Z,8.50
2022-12-26T21:48:22.781Z,9.48
2022-12-26T21:50:27.693Z,8.80
2022-12-26T21:52:32.583Z,9.98
2022-12-26T21:54:50.212Z,9.43
2022-12-26T21:56:55.303Z,9.05
2022-12-26T21:59:13.271Z,16.98
2022-12-26T22:01:23.060Z,10.88
2022-12-26T22:03:40.585Z,12.90
2022-12-26T22:05:45.920Z,11.65
2022-12-26T22:07:54.880Z,10.65
2022-12-26T22:09:59.868Z,8.90
2022-12-26T22:12:17.452Z,8.10
2022-12-26T22:14:22.426Z,8.65
2022-12-26T22:16:30.860Z,8.70
2022-12-26T22:18:39.624Z,7.68
2022-12-26T22:20:46.081Z,9.85
2022-12-26T22:22:51.946Z,7.63
2022-12-26T22:24:56.875Z,9.38
2022-12-26T22:27:01.836Z,8.43
2022-12-26T22:29:06.948Z,9.02
2022-12-26T22:31:22.203Z,7.05
2022-12-26T22:33:31.216Z,6.70
2022-12-26T22:35:36.175Z,8.27
2022-12-26T22:37:41.552Z,7.68
2022-12-26T22:39:46.473Z,5.57
2022-12-26T22:41:51.422Z,7.07
2022-12-26T22:43:57.550Z,4.50
2022-12-26T22:46:02.656Z,23.25
2022-12-26T22:48:08.389Z,7.65
2022-12-26T22:50:18.041Z,5.32
2022-12-26T22:52:23.187Z,6.53
2022-12-26T22:54:28.107Z,8.13
2022-12-26T22:56:33.474Z,6.07
2022-12-26T22:58:38.403Z,6.80
2022-12-26T23:00:43.705Z,5.40
2022-12-26T23:02:48.752Z,9.82
2022-12-26T23:04:55.073Z,8.90
2022-12-26T23:07:03.675Z,9.50
2022-12-26T23:09:16.247Z,7.35
2022-12-26T23:11:22.033Z,5.82
2022-12-26T23:13:28.175Z,9.23
2022-12-26T23:15:34.094Z,6.68
2022-12-26T23:17:56.454Z,9.45
2022-12-26T23:20:14.002Z,6.57
2022-12-26T23:22:22.349Z,8.63
2022-12-26T23:24:30.601Z,9.35
2022-12-26T23:26:35.683Z,8.65
2022-12-26T23:28:53.092Z,9.57
2022-12-26T23:30:58.843Z,12.10
2022-12-26T23:33:03.790Z,9.52
2022-12-26T23:35:12.174Z,14.98
2022-12-26T23:37:17.132Z,12.55
2022-12-26T23:39:24.714Z,9.10
2022-12-26T23:41:29.649Z,12.18
2022-12-26T23:43:35.151Z,11.32
2022-12-26T23:45:44.083Z,13.75
2022-12-26T23:47:49.345Z,6.55
2022-12-26T23:49:54.313Z,11.77
2022-12-26T23:51:59.311Z,10.32
2022-12-26T23:54:04.212Z,11.10
2022-12-26T23:56:13.004Z,9.85
2022-12-26T23:58:18.241Z,8.05
